createdAt,value
2018-02-21T00:00:39.572Z,25.10
2018-02-21T00:03:08.499Z,24.30
2018-02-21T00:05:37.371Z,29.90
2018-02-21T00:08:06.224Z,24.83
2018-02-21T00:10:35.104Z,30.47
2018-02-21T00:13:04.096Z,31.33
2018-02-21T00:15:32.986Z,30.97
2018-02-21T00:18:01.876Z,32.73
2018-02-21T00:20:30.778Z,28.67
2018-02-21T00:23:00.428Z,33.93
2018-02-21T00:25:29.370Z,27.83
2018-02-21T00:27:58.252Z,28.20
2018-02-21T00:30:27.124Z,30.67
2018-02-21T00:32:55.996Z,32.80
2018-02-21T00:35:24.872Z,30.93
2018-02-21T00:37:53.798Z,32.83
2018-02-21T00:40:22.663Z,30.50
2018-02-21T00:42:51.589Z,27.97
2018-02-21T00:45:20.494Z,27.63
2018-02-21T00:47:49.364Z,28.63
2018-02-21T00:50:18.284Z,30.20
2018-02-21T00:52:47.160Z,24.17
2018-02-21T00:55:16.023Z,30.00
2018-02-21T00:57:45.012Z,33.53
2018-02-21T01:00:13.866Z,29.07
2018-02-21T01:02:42.751Z,30.50
2018-02-21T01:05:11.687Z,28.67
2018-02-21T01:07:40.598Z,23.93
2018-02-21T01:10:09.491Z,27.53
2018-02-21T01:12:38.375Z,30.00
2018-02-21T01:15:07.242Z,28.53
2018-02-21T01:17:36.116Z,30.87
2018-02-21T01:20:04.976Z,31.53
2018-02-21T01:22:33.839Z,32.47
2018-02-21T01:25:03.101Z,33.10
2018-02-21T01:27:31.974Z,31.73
2018-02-21T01:30:00.841Z,32.90
2018-02-21T01:32:30.099Z,32.77
2018-02-21T01:34:59.088Z,28.77
2018-02-21T01:37:28.201Z,31.63
2018-02-21T01:39:57.097Z,33.07
2018-02-21T01:45:01.287Z,29.10
2018-02-21T01:47:30.133Z,31.80
2018-02-21T01:49:59.102Z,26.43
2018-02-21T01:52:28.020Z,28.17
2018-02-21T01:54:56.886Z,30.10
2018-02-21T01:57:25.737Z,33.93
2018-02-21T01:59:54.645Z,34.00
2018-02-21T02:02:23.580Z,35.47
2018-02-21T02:04:52.945Z,34.60
2018-02-21T02:07:22.375Z,34.47
2018-02-21T02:09:51.245Z,33.77
2018-02-21T02:12:20.128Z,32.77
2018-02-21T02:14:49.044Z,33.60
2018-02-21T02:17:17.996Z,32.73
2018-02-21T02:19:46.886Z,36.20
2018-02-21T02:22:15.800Z,32.90
2018-02-21T02:24:49.589Z,31.93
2018-02-21T02:27:18.487Z,33.77
2018-02-21T02:29:47.343Z,33.57
2018-02-21T02:32:16.474Z,33.60
2018-02-21T02:34:45.397Z,33.27
2018-02-21T02:37:14.260Z,33.47
2018-02-21T02:39:48.965Z,31.23
2018-02-21T02:42:17.832Z,33.60
2018-02-21T02:44:46.717Z,32.13
2018-02-21T02:47:15.616Z,35.20
2018-02-21T02:49:44.512Z,33.80
2018-02-21T02:52:13.360Z,32.33
2018-02-21T02:54:42.244Z,33.00
2018-02-21T02:57:12.074Z,33.37
2018-02-21T02:59:40.961Z,36.63
2018-02-21T03:02:09.848Z,33.60
2018-02-21T03:04:38.708Z,34.23
2018-02-21T03:07:07.585Z,35.40
2018-02-21T03:09:36.512Z,27.20
2018-02-21T03:12:05.397Z,33.47
2018-02-21T03:14:34.316Z,33.40
2018-02-21T03:17:03.220Z,35.40
2018-02-21T03:19:32.089Z,33.53
2018-02-21T03:22:01.364Z,33.50
2018-02-21T03:24:30.600Z,28.43
2018-02-21T03:26:59.577Z,33.23
2018-02-21T03:29:28.515Z,32.77
2018-02-21T03:31:58.347Z,34.70
2018-02-21T03:34:27.274Z,30.53
2018-02-21T03:36:56.404Z,29.90
2018-02-21T03:39:25.328Z,32.93
2018-02-21T03:41:54.193Z,33.83
2018-02-21T03:44:23.088Z,33.17
2018-02-21T03:46:52.040Z,34.30
2018-02-21T03:49:20.882Z,32.00
2018-02-21T03:51:49.792Z,32.10
2018-02-21T03:54:19.020Z,31.23
2018-02-21T03:56:48.224Z,32.83
2018-02-21T03:59:17.144Z,27.87
2018-02-21T04:01:45.990Z,31.40
2018-02-21T04:04:14.860Z,33.70
2018-02-21T04:06:43.748Z,33.60
2018-02-21T04:09:12.600Z,34.53
2018-02-21T04:11:41.457Z,30.03
2018-02-21T04:14:10.326Z,31.30
2018-02-21T04:16:39.190Z,28.47
2018-02-21T04:19:08.036Z,30.40
2018-02-21T04:21:36.919Z,32.63
2018-02-21T04:24:05.792Z,25.70
2018-02-21T04:26:34.634Z,29.90
2018-02-21T04:29:03.622Z,28.70
2018-02-21T04:31:32.488Z,26.90
2018-02-21T04:34:01.331Z,28.90
2018-02-21T04:36:30.914Z,31.57
2018-02-21T04:39:00.394Z,33.63
2018-02-21T04:41:29.254Z,31.70
2018-02-21T04:43:58.610Z,32.37
2018-02-21T04:46:27.475Z,28.53
2018-02-21T04:48:56.318Z,30.60
2018-02-21T04:51:25.626Z,27.13
2018-02-21T04:53:54.503Z,29.13
2018-02-21T04:56:39.201Z,33.47
2018-02-21T04:59:12.974Z,30.20
2018-02-21T05:01:41.868Z,33.43
2018-02-21T05:04:10.720Z,28.07
2018-02-21T05:06:40.425Z,32.53
2018-02-21T05:09:09.294Z,33.37
2018-02-21T05:11:38.168Z,30.93
2018-02-21T05:14:07.780Z,29.77
2018-02-21T05:16:36.773Z,28.27
2018-02-21T05:19:05.606Z,33.03
2018-02-21T05:21:34.464Z,31.43
2018-02-21T05:24:03.362Z,32.80
2018-02-21T05:26:32.193Z,32.57
2018-02-21T05:29:01.302Z,33.47
2018-02-21T05:31:30.184Z,31.47
2018-02-21T05:33:59.062Z,30.20
2018-02-21T05:36:28.488Z,32.33
2018-02-21T05:38:57.364Z,31.50
2018-02-21T05:41:26.202Z,33.33
2018-02-21T05:43:55.068Z,32.03
2018-02-21T05:46:24.870Z,28.00
2018-02-21T05:48:54.594Z,33.53
2018-02-21T05:51:23.506Z,28.97
2018-02-21T05:53:52.352Z,32.77
2018-02-21T05:56:21.218Z,27.43
2018-02-21T05:58:50.086Z,32.50
2018-02-21T06:01:19.760Z,30.10
2018-02-21T06:03:48.598Z,32.73
2018-02-21T06:06:17.593Z,32.40
2018-02-21T06:08:46.780Z,30.03
2018-02-21T06:11:15.682Z,29.80
2018-02-21T06:13:44.532Z,29.73
2018-02-21T06:16:13.390Z,31.27
2018-02-21T06:18:42.232Z,32.87
2018-02-21T06:21:11.104Z,30.57
2018-02-21T06:23:39.945Z,33.60
2018-02-21T06:26:08.791Z,32.33
2018-02-21T06:28:37.658Z,29.33
2018-02-21T06:31:06.508Z,32.57
2018-02-21T06:33:36.171Z,29.63
2018-02-21T06:36:05.102Z,29.43
2018-02-21T06:38:34.412Z,35.13
2018-02-21T06:41:08.022Z,26.93
2018-02-21T06:43:36.889Z,32.23
2018-02-21T06:46:06.236Z,29.93
2018-02-21T06:48:35.095Z,30.63
2018-02-21T06:51:03.959Z,31.53
2018-02-21T06:53:33.045Z,30.30
2018-02-21T06:56:02.097Z,26.67
2018-02-21T06:58:31.043Z,32.63
2018-02-21T07:01:02.903Z,30.23
2018-02-21T07:03:32.406Z,32.53
2018-02-21T07:06:01.252Z,33.00
2018-02-21T07:08:32.325Z,33.63
2018-02-21T07:11:03.725Z,34.57
2018-02-21T07:13:33.500Z,35.80
2018-02-21T07:16:02.366Z,36.50
2018-02-21T07:18:31.212Z,33.13
2018-02-21T07:21:01.020Z,35.33
2018-02-21T07:23:29.868Z,35.33
2018-02-21T07:26:02.121Z,36.80
2018-02-21T07:28:32.396Z,37.83
2018-02-21T07:31:03.085Z,37.57
2018-02-21T07:33:31.937Z,38.57
2018-02-21T07:36:00.778Z,40.87
2018-02-21T07:38:30.003Z,39.53
2018-02-21T07:44:08.315Z,39.33
2018-02-21T07:46:38.655Z,39.00
2018-02-21T07:49:07.494Z,39.70
2018-02-21T07:51:36.715Z,41.57
2018-02-21T07:54:08.984Z,40.53
2018-02-21T07:56:38.137Z,40.20
2018-02-21T07:59:08.103Z,40.37
2018-02-21T08:01:37.969Z,40.90
2018-02-21T08:04:06.822Z,38.23
2018-02-21T08:06:35.725Z,40.87
2018-02-21T08:09:04.639Z,41.80
2018-02-21T08:11:36.595Z,42.53
2018-02-21T08:14:10.244Z,43.23
2018-02-21T08:16:39.175Z,41.23
2018-02-21T08:19:08.079Z,39.23
2018-02-21T08:21:36.954Z,42.10
2018-02-21T08:24:05.821Z,41.43
2018-02-21T08:26:34.679Z,38.97
2018-02-21T08:29:03.645Z,40.13
2018-02-21T08:31:32.517Z,45.83
2018-02-21T08:34:01.398Z,43.07
2018-02-21T08:36:30.295Z,40.70
2018-02-21T08:38:59.159Z,39.47
2018-02-21T08:41:27.995Z,43.70
2018-02-21T08:43:56.849Z,41.60
2018-02-21T08:46:25.790Z,42.13
2018-02-21T08:48:54.957Z,39.83
2018-02-21T08:51:23.842Z,41.57
2018-02-21T08:53:53.613Z,41.97
2018-02-21T08:56:22.465Z,41.73
2018-02-21T08:58:52.247Z,42.37
2018-02-21T09:01:21.798Z,41.70
2018-02-21T09:03:50.664Z,41.67
2018-02-21T09:06:20.437Z,41.67
2018-02-21T09:08:49.291Z,40.60
2018-02-21T09:11:19.751Z,41.93
2018-02-21T09:13:48.999Z,41.17
2018-02-21T09:16:18.329Z,41.57
2018-02-21T09:18:47.182Z,40.93
2018-02-21T09:21:16.955Z,40.93
2018-02-21T09:23:45.792Z,40.57
2018-02-21T09:26:14.631Z,39.40
2018-02-21T09:28:43.517Z,40.33
2018-02-21T09:31:12.700Z,41.27
2018-02-21T09:33:41.555Z,39.43
2018-02-21T09:36:10.665Z,41.90
2018-02-21T09:38:40.147Z,41.07
2018-02-21T09:41:08.987Z,40.80
2018-02-21T09:43:39.124Z,40.50
2018-02-21T09:46:07.996Z,41.93
2018-02-21T09:48:36.839Z,40.73
2018-02-21T09:51:05.723Z,40.23
2018-02-21T09:53:34.613Z,39.67
2018-02-21T09:56:03.603Z,39.37
2018-02-21T09:58:32.483Z,37.97
2018-02-21T10:01:01.830Z,38.27
2018-02-21T10:03:30.697Z,39.13
2018-02-21T10:05:59.673Z,36.37
2018-02-21T10:08:35.359Z,36.40
2018-02-21T10:11:05.321Z,36.60
2018-02-21T10:13:35.065Z,34.40
2018-02-21T10:16:03.960Z,34.47
2018-02-21T10:18:33.179Z,35.40
2018-02-21T10:21:02.985Z,34.70
2018-02-21T10:23:32.208Z,32.63
2018-02-21T10:26:01.133Z,32.93
2018-02-21T10:28:30.547Z,34.90
2018-02-21T10:30:59.447Z,33.77
2018-02-21T10:33:36.345Z,33.33
2018-02-21T10:36:05.207Z,32.43
2018-02-21T10:38:34.118Z,32.17
2018-02-21T10:41:03.975Z,30.70
2018-02-21T10:43:32.887Z,31.43
2018-02-21T10:46:02.871Z,32.20
2018-02-21T10:48:32.067Z,31.57
2018-02-21T10:51:01.005Z,31.73
2018-02-21T10:53:30.195Z,32.03
2018-02-21T10:55:59.051Z,30.70
2018-02-21T10:58:27.943Z,30.57
2018-02-21T11:01:02.742Z,31.70
2018-02-21T11:03:33.305Z,31.00
2018-02-21T11:06:02.296Z,30.73
2018-02-21T11:08:32.171Z,31.37
2018-02-21T11:11:01.325Z,29.53
2018-02-21T11:13:30.219Z,30.53
2018-02-21T11:15:59.091Z,28.30
2018-02-21T11:18:27.987Z,29.37
2018-02-21T11:20:57.171Z,28.57
2018-02-21T11:23:26.330Z,29.73
2018-02-21T11:25:56.086Z,29.07
2018-02-21T11:28:24.978Z,29.03
2018-02-21T11:30:53.856Z,30.53
2018-02-21T11:33:23.123Z,27.87
2018-02-21T11:35:52.046Z,28.07
2018-02-21T11:38:20.894Z,25.90
2018-02-21T11:40:49.742Z,25.67
2018-02-21T11:43:19.068Z,27.23
2018-02-21T11:45:48.443Z,28.33
2018-02-21T11:48:17.709Z,28.73
2018-02-21T11:50:46.572Z,25.37
2018-02-21T11:55:49.298Z,24.77
2018-02-21T12:03:29.221Z,26.17
2018-02-21T12:08:42.184Z,27.80
2018-02-21T12:13:44.536Z,27.20
2018-02-21T12:16:14.071Z,25.43
2018-02-21T12:18:42.916Z,26.53
2018-02-21T12:21:11.776Z,28.57
2018-02-21T12:26:25.843Z,26.20
2018-02-21T12:28:57.349Z,26.20
2018-02-21T12:31:26.288Z,26.37
2018-02-21T12:33:55.238Z,28.03
2018-02-21T12:36:24.128Z,27.83
2018-02-21T12:41:40.174Z,27.50
2018-02-21T12:44:09.037Z,27.27
2018-02-21T12:46:37.872Z,29.40
2018-02-21T12:49:06.728Z,29.03
2018-02-21T12:51:35.573Z,30.03
2018-02-21T12:54:05.828Z,27.10
2018-02-21T12:56:34.684Z,28.40
2018-02-21T12:59:03.628Z,28.77
2018-02-21T13:01:33.093Z,28.37
2018-02-21T13:04:04.628Z,29.77
2018-02-21T13:06:33.500Z,27.47
2018-02-21T13:09:02.940Z,27.93
2018-02-21T13:11:32.688Z,28.87
2018-02-21T13:14:02.214Z,29.27
2018-02-21T13:16:32.260Z,26.43
2018-02-21T13:19:02.308Z,27.27
2018-02-21T13:21:32.397Z,27.17
2018-02-21T13:24:02.826Z,27.63
2018-02-21T13:26:33.612Z,27.67
2018-02-21T13:29:03.436Z,28.60
2018-02-21T13:31:33.595Z,28.97
2018-02-21T13:34:03.310Z,28.00
2018-02-21T13:36:35.419Z,28.33
2018-02-21T13:39:04.268Z,27.87
2018-02-21T13:41:33.366Z,27.43
2018-02-21T13:44:03.177Z,27.87
2018-02-21T13:46:32.671Z,27.83
2018-02-21T13:49:01.516Z,27.70
2018-02-21T13:51:30.613Z,26.67
2018-02-21T13:53:59.986Z,27.90
2018-02-21T13:56:28.846Z,26.00
2018-02-21T13:58:57.736Z,25.70
2018-02-21T14:01:26.588Z,27.10
2018-02-21T14:03:55.972Z,27.97
2018-02-21T14:06:24.860Z,27.63
2018-02-21T14:08:53.749Z,27.70
2018-02-21T14:11:22.606Z,27.40
2018-02-21T14:13:52.230Z,27.70
2018-02-21T14:16:21.114Z,28.90
2018-02-21T14:18:49.994Z,28.40
2018-02-21T14:21:19.568Z,27.43
2018-02-21T14:23:48.414Z,26.73
2018-02-21T14:26:17.330Z,25.63
2018-02-21T14:28:46.208Z,27.00
2018-02-21T14:31:15.052Z,25.87
2018-02-21T14:33:45.088Z,26.10
2018-02-21T14:36:13.943Z,26.47
2018-02-21T14:38:43.395Z,26.10
2018-02-21T14:41:12.262Z,27.30
2018-02-21T14:43:41.112Z,27.03
2018-02-21T14:46:09.972Z,25.27
2018-02-21T14:48:41.114Z,26.13
2018-02-21T14:51:09.972Z,26.37
2018-02-21T14:53:39.838Z,26.17
2018-02-21T14:56:08.724Z,26.07
2018-02-21T14:58:37.574Z,25.37
2018-02-21T15:01:06.446Z,24.53
2018-02-21T15:03:35.324Z,25.77
2018-02-21T15:06:04.173Z,26.07
2018-02-21T15:11:10.232Z,22.97
2018-02-21T15:13:39.122Z,20.57
2018-02-21T15:16:07.971Z,23.33
2018-02-21T15:18:36.846Z,22.63
2018-02-21T15:21:05.732Z,22.37
2018-02-21T15:23:34.616Z,20.57
2018-02-21T15:26:03.477Z,19.33
2018-02-21T15:28:32.757Z,18.40
2018-02-21T15:31:02.160Z,19.13
2018-02-21T15:33:31.473Z,18.77
2018-02-21T15:36:01.141Z,18.73
2018-02-21T15:38:30.261Z,19.10
2018-02-21T15:41:00.140Z,18.77
2018-02-21T15:43:29.000Z,19.00
2018-02-21T15:45:58.694Z,18.30
2018-02-21T15:48:27.568Z,18.37
2018-02-21T15:50:56.438Z,18.40
2018-02-21T15:53:25.448Z,17.07
2018-02-21T15:55:54.413Z,17.40
2018-02-21T15:58:26.917Z,17.20
2018-02-21T16:00:55.796Z,22.03
2018-02-21T16:03:24.740Z,17.77
2018-02-21T16:06:00.198Z,18.90
2018-02-21T16:08:29.041Z,17.40
2018-02-21T16:10:58.482Z,18.40
2018-02-21T16:13:27.407Z,19.93
2018-02-21T16:15:56.252Z,18.03
2018-02-21T16:18:25.130Z,17.10
2018-02-21T16:20:54.076Z,17.53
2018-02-21T16:23:22.932Z,18.70
2018-02-21T16:25:52.160Z,18.50
2018-02-21T16:28:22.114Z,17.70
2018-02-21T16:30:52.196Z,17.30
2018-02-21T16:33:24.128Z,17.00
2018-02-21T16:41:08.156Z,18.43
2018-02-21T16:46:22.718Z,19.73
2018-02-21T16:51:28.218Z,20.37
2018-02-21T16:54:03.228Z,20.53
2018-02-21T16:56:32.391Z,20.23
2018-02-21T16:59:01.270Z,19.53
2018-02-21T17:01:36.596Z,21.97
2018-02-21T17:04:05.473Z,20.87
2018-02-21T17:06:34.319Z,19.87
2018-02-21T17:09:03.213Z,20.40
2018-02-21T17:11:32.402Z,22.43
2018-02-21T17:14:01.278Z,20.60
2018-02-21T17:16:30.158Z,21.57
2018-02-21T17:18:59.710Z,22.47
2018-02-21T17:21:28.577Z,22.10
2018-02-21T17:23:57.578Z,27.03
2018-02-21T17:26:26.440Z,23.30
2018-02-21T17:28:55.330Z,23.30
2018-02-21T17:31:24.178Z,25.07
2018-02-21T17:33:54.593Z,25.17
2018-02-21T17:36:24.141Z,25.50
2018-02-21T17:38:53.337Z,25.70
2018-02-21T17:41:28.220Z,24.40
2018-02-21T17:43:57.392Z,25.10
2018-02-21T17:46:26.777Z,24.63
2018-02-21T17:48:55.887Z,23.47
2018-02-21T17:51:24.718Z,23.77
2018-02-21T17:53:55.699Z,24.10
2018-02-21T17:56:25.284Z,23.60
2018-02-21T17:58:55.391Z,22.00
2018-02-21T18:01:24.264Z,24.80
2018-02-21T18:03:53.122Z,22.97
2018-02-21T18:06:21.976Z,24.00
2018-02-21T18:08:51.722Z,23.23
2018-02-21T18:11:20.647Z,22.23
2018-02-21T18:13:49.530Z,21.97
2018-02-21T18:16:18.486Z,23.60
2018-02-21T18:18:47.330Z,22.87
2018-02-21T18:21:22.037Z,24.03
2018-02-21T18:23:50.878Z,23.57
2018-02-21T18:26:20.878Z,24.93
2018-02-21T18:28:49.963Z,23.30
2018-02-21T18:31:19.659Z,24.87
2018-02-21T18:33:48.530Z,25.37
2018-02-21T18:36:17.587Z,24.30
2018-02-21T18:38:46.843Z,22.63
2018-02-21T18:41:18.556Z,23.83
2018-02-21T18:43:48.136Z,24.50
2018-02-21T18:46:17.335Z,22.73
2018-02-21T18:48:46.502Z,22.97
2018-02-21T18:51:15.375Z,24.13
2018-02-21T18:53:44.243Z,24.17
2018-02-21T18:56:13.091Z,22.17
2018-02-21T18:58:41.952Z,23.00
2018-02-21T19:01:12.346Z,21.50
2018-02-21T19:03:41.972Z,21.87
2018-02-21T19:06:13.500Z,23.10
2018-02-21T19:08:47.188Z,20.97
2018-02-21T19:13:49.357Z,22.17
2018-02-21T19:29:13.905Z,23.10
2018-02-21T19:34:18.778Z,22.10
2018-02-21T19:44:28.937Z,20.23
2018-02-21T19:46:58.260Z,19.47
2018-02-21T19:49:27.115Z,21.33
2018-02-21T19:51:56.039Z,20.53
2018-02-21T19:54:24.952Z,22.47
2018-02-21T19:56:53.799Z,23.00
2018-02-21T19:59:22.681Z,21.27
2018-02-21T20:01:51.549Z,21.37
2018-02-21T20:04:20.438Z,20.03
2018-02-21T20:06:49.313Z,20.33
2018-02-21T20:09:18.223Z,22.73
2018-02-21T20:11:47.307Z,22.63
2018-02-21T20:14:16.161Z,23.33
2018-02-21T20:16:45.053Z,23.43
2018-02-21T20:19:13.965Z,20.50
2018-02-21T20:21:42.819Z,21.20
2018-02-21T20:24:11.681Z,23.00
2018-02-21T20:26:40.541Z,21.43
2018-02-21T20:29:09.437Z,23.50
2018-02-21T20:31:38.302Z,21.57
2018-02-21T20:34:07.144Z,19.83
2018-02-21T20:39:09.550Z,22.77
2018-02-21T20:44:21.239Z,23.10
2018-02-21T20:46:51.110Z,23.57
2018-02-21T20:49:20.460Z,23.50
2018-02-21T20:51:49.309Z,24.77
2018-02-21T20:56:56.627Z,23.53
2018-02-21T20:59:26.237Z,24.10
2018-02-21T21:01:55.636Z,23.87
2018-02-21T21:04:24.559Z,21.07
2018-02-21T21:06:53.411Z,24.40
2018-02-21T21:09:26.388Z,22.20
2018-02-21T21:14:29.576Z,23.33
2018-02-21T21:17:02.992Z,20.67
2018-02-21T21:19:31.877Z,19.70
2018-02-21T21:22:03.284Z,24.20
2018-02-21T21:24:34.497Z,22.10
2018-02-21T21:27:03.363Z,23.27
2018-02-21T21:42:25.500Z,21.70
2018-02-21T21:44:55.812Z,24.47
2018-02-21T22:02:55.090Z,19.83
2018-02-21T22:15:40.183Z,22.37
2018-02-21T22:18:11.831Z,18.23
2018-02-21T22:20:58.655Z,19.97
2018-02-21T22:23:37.521Z,24.03
2018-02-21T22:26:09.462Z,22.23
2018-02-21T22:28:39.717Z,24.13
2018-02-21T22:31:10.324Z,22.80
2018-02-21T22:33:39.844Z,22.03
2018-02-21T22:36:08.737Z,23.20
2018-02-21T22:38:38.326Z,23.20
2018-02-21T22:41:07.162Z,22.03
2018-02-21T22:43:36.027Z,20.87
2018-02-21T22:48:46.947Z,21.83
2018-02-21T22:51:15.833Z,21.90
2018-02-21T22:53:46.428Z,22.93
2018-02-21T22:56:15.584Z,23.77
2018-02-21T22:58:44.442Z,22.57
2018-02-21T23:01:13.600Z,23.47
2018-02-21T23:03:43.436Z,21.67
2018-02-21T23:06:13.234Z,23.03
2018-02-21T23:08:42.092Z,22.17
2018-02-21T23:11:11.920Z,24.00
2018-02-21T23:13:40.766Z,21.73
2018-02-21T23:16:09.648Z,19.33
2018-02-21T23:18:39.925Z,22.50
2018-02-21T23:21:08.775Z,22.33
2018-02-21T23:23:39.911Z,22.93
2018-02-21T23:26:09.605Z,21.60
2018-02-21T23:28:39.119Z,22.97
2018-02-21T23:31:08.089Z,20.77
2018-02-21T23:33:36.982Z,22.33
2018-02-21T23:36:05.828Z,21.47
2018-02-21T23:38:35.438Z,22.37
2018-02-21T23:41:04.742Z,21.90
2018-02-21T23:43:33.608Z,20.10
2018-02-21T23:46:02.471Z,21.63
2018-02-21T23:48:32.177Z,22.57
2018-02-21T23:51:01.038Z,21.33
2018-02-21T23:53:31.385Z,21.83
2018-02-21T23:56:00.276Z,22.70
2018-02-21T23:58:29.108Z,23.13
